sensor_id;sensor_type;location;lat;lon;timestamp;P1;durP1;ratioP1;P2;durP2;ratioP2
54307;SDS011;40208;39.778;2.710;2023-06-22T00:02:21;54.42;;;11.38;;
54307;SDS011;40208;39.778;2.710;2023-06-22T00:05:06;43.72;;;11.35;;
54307;SDS011;40208;39.778;2.710;2023-06-22T00:07:51;37.50;;;10.45;;
54307;SDS011;40208;39.778;2.710;2023-06-22T00:10:35;49.78;;;11.05;;
54307;SDS011;40208;39.778;2.710;2023-06-22T00:13:20;55.50;;;11.20;;
54307;SDS011;40208;39.778;2.710;2023-06-22T00:16:05;46.13;;;10.05;;
54307;SDS011;40208;39.778;2.710;2023-06-22T00:18:50;36.58;;;9.18;;
54307;SDS011;40208;39.778;2.710;2023-06-22T00:21:35;47.83;;;11.82;;
54307;SDS011;40208;39.778;2.710;2023-06-22T00:24:20;42.65;;;10.20;;
54307;SDS011;40208;39.778;2.710;2023-06-22T00:27:05;36.85;;;9.15;;
54307;SDS011;40208;39.778;2.710;2023-06-22T00:29:50;49.45;;;11.70;;
54307;SDS011;40208;39.778;2.710;2023-06-22T00:32:35;44.05;;;11.20;;
54307;SDS011;40208;39.778;2.710;2023-06-22T00:35:20;36.33;;;10.07;;
54307;SDS011;40208;39.778;2.710;2023-06-22T00:38:05;44.55;;;11.27;;
54307;SDS011;40208;39.778;2.710;2023-06-22T00:40:50;43.92;;;11.02;;
54307;SDS011;40208;39.778;2.710;2023-06-22T00:43:35;59.30;;;11.40;;
54307;SDS011;40208;39.778;2.710;2023-06-22T00:46:20;40.70;;;9.85;;
54307;SDS011;40208;39.778;2.710;2023-06-22T00:49:07;43.88;;;10.38;;
54307;SDS011;40208;39.778;2.710;2023-06-22T00:51:52;42.75;;;10.15;;
54307;SDS011;40208;39.778;2.710;2023-06-22T00:54:37;37.00;;;10.45;;
54307;SDS011;40208;39.778;2.710;2023-06-22T00:57:22;44.80;;;11.07;;
54307;SDS011;40208;39.778;2.710;2023-06-22T01:00:12;38.92;;;9.88;;
54307;SDS011;40208;39.778;2.710;2023-06-22T01:03:01;48.50;;;11.57;;
54307;SDS011;40208;39.778;2.710;2023-06-22T01:05:46;48.13;;;10.45;;
54307;SDS011;40208;39.778;2.710;2023-06-22T01:08:41;46.30;;;12.15;;
54307;SDS011;40208;39.778;2.710;2023-06-22T01:11:36;45.95;;;10.93;;
54307;SDS011;40208;39.778;2.710;2023-06-22T01:17:50;30.83;;;9.77;;
54307;SDS011;40208;39.778;2.710;2023-06-22T01:20:38;43.67;;;10.82;;
54307;SDS011;40208;39.778;2.710;2023-06-22T01:29:30;36.05;;;10.30;;
54307;SDS011;40208;39.778;2.710;2023-06-22T01:32:18;35.85;;;10.90;;
54307;SDS011;40208;39.778;2.710;2023-06-22T01:35:05;35.38;;;11.00;;
54307;SDS011;40208;39.778;2.710;2023-06-22T01:37:52;39.13;;;10.80;;
54307;SDS011;40208;39.778;2.710;2023-06-22T01:40:37;35.95;;;10.20;;
54307;SDS011;40208;39.778;2.710;2023-06-22T01:43:23;39.40;;;10.68;;
54307;SDS011;40208;39.778;2.710;2023-06-22T01:46:10;37.75;;;9.50;;
54307;SDS011;40208;39.778;2.710;2023-06-22T01:48:56;44.22;;;10.13;;
54307;SDS011;40208;39.778;2.710;2023-06-22T01:51:41;36.70;;;10.30;;
54307;SDS011;40208;39.778;2.710;2023-06-22T01:54:26;37.33;;;9.40;;
54307;SDS011;40208;39.778;2.710;2023-06-22T01:57:11;37.05;;;10.27;;
54307;SDS011;40208;39.778;2.710;2023-06-22T02:00:18;39.75;;;10.23;;
54307;SDS011;40208;39.778;2.710;2023-06-22T02:03:10;40.17;;;10.30;;
54307;SDS011;40208;39.778;2.710;2023-06-22T02:06:06;39.42;;;10.30;;
54307;SDS011;40208;39.778;2.710;2023-06-22T02:08:55;29.52;;;9.95;;
54307;SDS011;40208;39.778;2.710;2023-06-22T02:11:45;34.60;;;9.98;;
54307;SDS011;40208;39.778;2.710;2023-06-22T02:14:32;36.80;;;9.75;;
54307;SDS011;40208;39.778;2.710;2023-06-22T02:17:19;47.35;;;11.15;;
54307;SDS011;40208;39.778;2.710;2023-06-22T02:20:04;34.08;;;10.10;;
54307;SDS011;40208;39.778;2.710;2023-06-22T02:22:52;35.85;;;10.48;;
54307;SDS011;40208;39.778;2.710;2023-06-22T02:25:37;36.50;;;10.32;;
54307;SDS011;40208;39.778;2.710;2023-06-22T02:28:21;51.42;;;11.68;;
54307;SDS011;40208;39.778;2.710;2023-06-22T02:31:06;41.33;;;10.35;;
54307;SDS011;40208;39.778;2.710;2023-06-22T02:33:51;35.22;;;10.10;;
54307;SDS011;40208;39.778;2.710;2023-06-22T02:36:35;29.30;;;9.82;;
54307;SDS011;40208;39.778;2.710;2023-06-22T02:39:21;35.25;;;10.77;;
54307;SDS011;40208;39.778;2.710;2023-06-22T02:42:07;33.33;;;9.68;;
54307;SDS011;40208;39.778;2.710;2023-06-22T02:44:52;35.28;;;9.73;;
54307;SDS011;40208;39.778;2.710;2023-06-22T02:47:37;35.20;;;9.50;;
54307;SDS011;40208;39.778;2.710;2023-06-22T02:50:22;34.33;;;10.23;;
54307;SDS011;40208;39.778;2.710;2023-06-22T02:53:07;37.67;;;9.98;;
54307;SDS011;40208;39.778;2.710;2023-06-22T02:55:52;31.15;;;10.38;;
54307;SDS011;40208;39.778;2.710;2023-06-22T02:58:36;38.08;;;10.63;;
54307;SDS011;40208;39.778;2.710;2023-06-22T03:01:22;31.33;;;9.85;;
54307;SDS011;40208;39.778;2.710;2023-06-22T03:04:09;38.92;;;10.32;;
54307;SDS011;40208;39.778;2.710;2023-06-22T03:06:54;34.40;;;10.02;;
54307;SDS011;40208;39.778;2.710;2023-06-22T03:09:39;38.35;;;10.80;;
54307;SDS011;40208;39.778;2.710;2023-06-22T03:12:24;38.33;;;10.05;;
54307;SDS011;40208;39.778;2.710;2023-06-22T03:15:09;27.65;;;9.43;;
54307;SDS011;40208;39.778;2.710;2023-06-22T03:17:55;31.48;;;8.93;;
54307;SDS011;40208;39.778;2.710;2023-06-22T03:20:40;29.67;;;9.57;;
54307;SDS011;40208;39.778;2.710;2023-06-22T03:23:26;34.50;;;11.40;;
54307;SDS011;40208;39.778;2.710;2023-06-22T03:26:10;30.23;;;9.25;;
54307;SDS011;40208;39.778;2.710;2023-06-22T03:28:56;29.13;;;8.52;;
54307;SDS011;40208;39.778;2.710;2023-06-22T03:31:41;28.05;;;9.05;;
54307;SDS011;40208;39.778;2.710;2023-06-22T03:34:27;26.63;;;9.27;;
54307;SDS011;40208;39.778;2.710;2023-06-22T03:37:11;37.58;;;11.57;;
54307;SDS011;40208;39.778;2.710;2023-06-22T03:39:56;33.50;;;9.70;;
54307;SDS011;40208;39.778;2.710;2023-06-22T03:42:41;29.08;;;8.63;;
54307;SDS011;40208;39.778;2.710;2023-06-22T03:45:26;34.35;;;10.60;;
54307;SDS011;40208;39.778;2.710;2023-06-22T03:48:11;29.02;;;9.18;;
54307;SDS011;40208;39.778;2.710;2023-06-22T03:50:56;45.55;;;11.00;;
54307;SDS011;40208;39.778;2.710;2023-06-22T03:53:41;38.10;;;10.18;;
54307;SDS011;40208;39.778;2.710;2023-06-22T03:56:26;43.97;;;10.48;;
54307;SDS011;40208;39.778;2.710;2023-06-22T03:59:11;36.47;;;10.52;;
54307;SDS011;40208;39.778;2.710;2023-06-22T04:01:55;34.80;;;9.68;;
54307;SDS011;40208;39.778;2.710;2023-06-22T04:04:40;30.63;;;9.85;;
54307;SDS011;40208;39.778;2.710;2023-06-22T04:07:25;33.30;;;8.85;;
54307;SDS011;40208;39.778;2.710;2023-06-22T04:10:09;40.55;;;10.55;;
54307;SDS011;40208;39.778;2.710;2023-06-22T04:12:54;34.35;;;10.25;;
54307;SDS011;40208;39.778;2.710;2023-06-22T04:15:39;37.97;;;10.35;;
54307;SDS011;40208;39.778;2.710;2023-06-22T04:18:24;46.10;;;11.93;;
54307;SDS011;40208;39.778;2.710;2023-06-22T04:21:09;33.53;;;10.07;;
54307;SDS011;40208;39.778;2.710;2023-06-22T04:23:55;46.65;;;11.80;;
54307;SDS011;40208;39.778;2.710;2023-06-22T04:26:39;37.17;;;10.15;;
54307;SDS011;40208;39.778;2.710;2023-06-22T04:29:25;32.22;;;9.90;;
54307;SDS011;40208;39.778;2.710;2023-06-22T04:32:14;30.60;;;9.52;;
54307;SDS011;40208;39.778;2.710;2023-06-22T04:34:59;38.45;;;9.80;;
54307;SDS011;40208;39.778;2.710;2023-06-22T04:37:48;44.90;;;10.82;;
54307;SDS011;40208;39.778;2.710;2023-06-22T04:40:34;40.97;;;10.77;;
54307;SDS011;40208;39.778;2.710;2023-06-22T04:43:19;35.88;;;10.23;;
54307;SDS011;40208;39.778;2.710;2023-06-22T04:46:04;35.85;;;10.95;;
54307;SDS011;40208;39.778;2.710;2023-06-22T04:48:50;40.08;;;11.23;;
54307;SDS011;40208;39.778;2.710;2023-06-22T04:51:40;39.35;;;11.77;;
54307;SDS011;40208;39.778;2.710;2023-06-22T04:54:26;35.90;;;10.55;;
54307;SDS011;40208;39.778;2.710;2023-06-22T04:57:11;39.60;;;11.27;;
54307;SDS011;40208;39.778;2.710;2023-06-22T04:59:56;53.05;;;12.57;;
54307;SDS011;40208;39.778;2.710;2023-06-22T05:02:41;38.85;;;10.55;;
54307;SDS011;40208;39.778;2.710;2023-06-22T05:05:25;32.28;;;10.32;;
54307;SDS011;40208;39.778;2.710;2023-06-22T05:08:13;34.42;;;10.20;;
54307;SDS011;40208;39.778;2.710;2023-06-22T05:10:58;36.28;;;10.45;;
54307;SDS011;40208;39.778;2.710;2023-06-22T05:13:43;37.25;;;9.93;;
54307;SDS011;40208;39.778;2.710;2023-06-22T05:16:27;38.72;;;10.07;;
54307;SDS011;40208;39.778;2.710;2023-06-22T05:19:12;39.75;;;10.27;;
54307;SDS011;40208;39.778;2.710;2023-06-22T05:21:57;46.03;;;12.57;;
54307;SDS011;40208;39.778;2.710;2023-06-22T05:24:42;39.75;;;9.80;;
54307;SDS011;40208;39.778;2.710;2023-06-22T05:27:27;35.75;;;11.02;;
54307;SDS011;40208;39.778;2.710;2023-06-22T05:30:12;33.90;;;10.70;;
54307;SDS011;40208;39.778;2.710;2023-06-22T05:32:57;36.28;;;11.77;;
54307;SDS011;40208;39.778;2.710;2023-06-22T05:35:42;36.63;;;9.68;;
54307;SDS011;40208;39.778;2.710;2023-06-22T05:38:26;38.30;;;10.65;;
54307;SDS011;40208;39.778;2.710;2023-06-22T05:41:11;41.20;;;11.57;;
54307;SDS011;40208;39.778;2.710;2023-06-22T05:43:56;40.28;;;11.18;;
54307;SDS011;40208;39.778;2.710;2023-06-22T05:46:42;39.53;;;10.27;;
54307;SDS011;40208;39.778;2.710;2023-06-22T05:49:32;41.42;;;10.75;;
54307;SDS011;40208;39.778;2.710;2023-06-22T05:52:17;28.70;;;9.98;;
54307;SDS011;40208;39.778;2.710;2023-06-22T05:55:02;44.50;;;10.48;;
54307;SDS011;40208;39.778;2.710;2023-06-22T05:57:47;30.75;;;10.70;;
54307;SDS011;40208;39.778;2.710;2023-06-22T06:00:32;31.67;;;10.27;;
54307;SDS011;40208;39.778;2.710;2023-06-22T06:03:17;33.78;;;10.85;;
54307;SDS011;40208;39.778;2.710;2023-06-22T06:06:02;41.10;;;10.45;;
54307;SDS011;40208;39.778;2.710;2023-06-22T06:08:47;41.22;;;10.90;;
54307;SDS011;40208;39.778;2.710;2023-06-22T06:11:32;40.92;;;12.68;;
54307;SDS011;40208;39.778;2.710;2023-06-22T06:14:17;41.58;;;11.73;;
54307;SDS011;40208;39.778;2.710;2023-06-22T06:17:01;44.60;;;11.52;;
54307;SDS011;40208;39.778;2.710;2023-06-22T06:19:46;37.40;;;11.07;;
54307;SDS011;40208;39.778;2.710;2023-06-22T06:22:31;36.53;;;10.93;;
54307;SDS011;40208;39.778;2.710;2023-06-22T06:25:16;36.83;;;11.05;;
54307;SDS011;40208;39.778;2.710;2023-06-22T06:28:03;44.78;;;13.15;;
54307;SDS011;40208;39.778;2.710;2023-06-22T06:30:48;41.58;;;10.27;;
54307;SDS011;40208;39.778;2.710;2023-06-22T06:33:33;42.10;;;11.00;;
54307;SDS011;40208;39.778;2.710;2023-06-22T06:36:18;45.55;;;10.98;;
54307;SDS011;40208;39.778;2.710;2023-06-22T06:39:02;48.17;;;11.50;;
54307;SDS011;40208;39.778;2.710;2023-06-22T06:41:48;37.97;;;10.63;;
54307;SDS011;40208;39.778;2.710;2023-06-22T06:44:33;49.50;;;12.52;;
54307;SDS011;40208;39.778;2.710;2023-06-22T06:47:18;48.30;;;11.90;;
54307;SDS011;40208;39.778;2.710;2023-06-22T06:50:03;40.88;;;12.45;;
54307;SDS011;40208;39.778;2.710;2023-06-22T06:52:49;52.55;;;12.27;;
54307;SDS011;40208;39.778;2.710;2023-06-22T06:55:34;32.90;;;11.30;;
54307;SDS011;40208;39.778;2.710;2023-06-22T06:58:19;40.88;;;11.82;;
54307;SDS011;40208;39.778;2.710;2023-06-22T07:01:04;46.75;;;13.23;;
54307;SDS011;40208;39.778;2.710;2023-06-22T07:03:49;41.40;;;11.50;;
54307;SDS011;40208;39.778;2.710;2023-06-22T07:06:34;56.10;;;11.63;;
54307;SDS011;40208;39.778;2.710;2023-06-22T07:09:19;49.50;;;11.38;;
54307;SDS011;40208;39.778;2.710;2023-06-22T07:12:04;39.75;;;12.35;;
54307;SDS011;40208;39.778;2.710;2023-06-22T07:14:49;31.73;;;10.68;;
54307;SDS011;40208;39.778;2.710;2023-06-22T07:17:35;41.95;;;10.88;;
54307;SDS011;40208;39.778;2.710;2023-06-22T07:20:20;38.72;;;9.70;;
54307;SDS011;40208;39.778;2.710;2023-06-22T07:23:05;40.78;;;10.43;;
54307;SDS011;40208;39.778;2.710;2023-06-22T07:25:50;35.47;;;10.43;;
54307;SDS011;40208;39.778;2.710;2023-06-22T07:28:35;44.38;;;10.65;;
54307;SDS011;40208;39.778;2.710;2023-06-22T07:31:23;33.55;;;10.65;;
54307;SDS011;40208;39.778;2.710;2023-06-22T07:34:09;34.60;;;10.48;;
54307;SDS011;40208;39.778;2.710;2023-06-22T07:36:54;34.72;;;10.88;;
54307;SDS011;40208;39.778;2.710;2023-06-22T07:39:39;46.00;;;10.95;;
54307;SDS011;40208;39.778;2.710;2023-06-22T07:42:25;35.20;;;9.95;;
54307;SDS011;40208;39.778;2.710;2023-06-22T07:45:10;28.05;;;9.13;;
54307;SDS011;40208;39.778;2.710;2023-06-22T07:47:54;30.70;;;9.60;;
54307;SDS011;40208;39.778;2.710;2023-06-22T07:50:39;36.05;;;10.25;;
54307;SDS011;40208;39.778;2.710;2023-06-22T07:53:24;38.47;;;10.77;;
54307;SDS011;40208;39.778;2.710;2023-06-22T07:56:12;28.63;;;9.98;;
54307;SDS011;40208;39.778;2.710;2023-06-22T07:58:57;24.90;;;9.50;;
54307;SDS011;40208;39.778;2.710;2023-06-22T08:01:43;25.73;;;9.20;;
54307;SDS011;40208;39.778;2.710;2023-06-22T08:04:28;41.50;;;10.43;;
54307;SDS011;40208;39.778;2.710;2023-06-22T08:07:13;43.33;;;9.65;;
54307;SDS011;40208;39.778;2.710;2023-06-22T08:09:58;30.02;;;9.35;;
54307;SDS011;40208;39.778;2.710;2023-06-22T08:12:43;28.73;;;9.77;;
54307;SDS011;40208;39.778;2.710;2023-06-22T08:15:27;29.75;;;8.73;;
54307;SDS011;40208;39.778;2.710;2023-06-22T08:18:12;35.42;;;10.15;;
54307;SDS011;40208;39.778;2.710;2023-06-22T08:20:57;31.85;;;9.43;;
54307;SDS011;40208;39.778;2.710;2023-06-22T08:23:42;33.28;;;9.40;;
54307;SDS011;40208;39.778;2.710;2023-06-22T08:26:27;28.77;;;9.30;;
54307;SDS011;40208;39.778;2.710;2023-06-22T08:29:12;34.92;;;8.95;;
54307;SDS011;40208;39.778;2.710;2023-06-22T08:31:57;37.78;;;9.82;;
54307;SDS011;40208;39.778;2.710;2023-06-22T08:34:42;26.08;;;8.77;;
54307;SDS011;40208;39.778;2.710;2023-06-22T08:37:26;28.27;;;8.68;;
54307;SDS011;40208;39.778;2.710;2023-06-22T08:40:15;35.17;;;9.52;;
54307;SDS011;40208;39.778;2.710;2023-06-22T08:42:59;24.50;;;9.20;;
54307;SDS011;40208;39.778;2.710;2023-06-22T08:45:44;33.42;;;9.75;;
54307;SDS011;40208;39.778;2.710;2023-06-22T08:48:30;34.42;;;8.88;;
54307;SDS011;40208;39.778;2.710;2023-06-22T08:51:15;39.15;;;9.05;;
54307;SDS011;40208;39.778;2.710;2023-06-22T08:53:59;43.08;;;8.65;;
54307;SDS011;40208;39.778;2.710;2023-06-22T08:56:44;25.17;;;8.60;;
54307;SDS011;40208;39.778;2.710;2023-06-22T08:59:29;32.63;;;9.00;;
54307;SDS011;40208;39.778;2.710;2023-06-22T09:02:14;31.38;;;8.13;;
54307;SDS011;40208;39.778;2.710;2023-06-22T09:05:03;24.52;;;7.47;;
54307;SDS011;40208;39.778;2.710;2023-06-22T09:07:49;30.10;;;8.57;;
54307;SDS011;40208;39.778;2.710;2023-06-22T09:10:33;29.42;;;7.90;;
54307;SDS011;40208;39.778;2.710;2023-06-22T09:13:18;26.05;;;7.80;;
54307;SDS011;40208;39.778;2.710;2023-06-22T09:16:03;34.20;;;8.82;;
54307;SDS011;40208;39.778;2.710;2023-06-22T09:18:48;25.10;;;8.00;;
54307;SDS011;40208;39.778;2.710;2023-06-22T09:21:33;34.17;;;7.43;;
54307;SDS011;40208;39.778;2.710;2023-06-22T09:24:18;26.88;;;7.68;;
54307;SDS011;40208;39.778;2.710;2023-06-22T09:27:03;33.25;;;8.90;;
54307;SDS011;40208;39.778;2.710;2023-06-22T09:29:48;38.10;;;8.35;;
54307;SDS011;40208;39.778;2.710;2023-06-22T09:32:34;31.17;;;8.20;;
54307;SDS011;40208;39.778;2.710;2023-06-22T09:35:19;24.73;;;7.28;;
54307;SDS011;40208;39.778;2.710;2023-06-22T09:38:04;24.45;;;7.10;;
54307;SDS011;40208;39.778;2.710;2023-06-22T09:40:49;27.67;;;7.47;;
54307;SDS011;40208;39.778;2.710;2023-06-22T09:43:34;27.05;;;7.63;;
54307;SDS011;40208;39.778;2.710;2023-06-22T09:46:20;27.83;;;7.28;;
54307;SDS011;40208;39.778;2.710;2023-06-22T09:49:07;27.63;;;7.38;;
54307;SDS011;40208;39.778;2.710;2023-06-22T09:51:52;18.02;;;5.90;;
54307;SDS011;40208;39.778;2.710;2023-06-22T09:54:36;18.27;;;5.93;;
54307;SDS011;40208;39.778;2.710;2023-06-22T09:57:21;15.05;;;5.32;;
54307;SDS011;40208;39.778;2.710;2023-06-22T10:00:06;21.95;;;6.50;;
54307;SDS011;40208;39.778;2.710;2023-06-22T10:02:53;19.30;;;6.65;;
54307;SDS011;40208;39.778;2.710;2023-06-22T10:05:39;26.50;;;6.93;;
54307;SDS011;40208;39.778;2.710;2023-06-22T10:08:25;23.23;;;6.80;;
54307;SDS011;40208;39.778;2.710;2023-06-22T10:11:09;17.88;;;6.40;;
54307;SDS011;40208;39.778;2.710;2023-06-22T10:13:54;20.40;;;5.55;;
54307;SDS011;40208;39.778;2.710;2023-06-22T10:16:39;20.45;;;6.03;;
54307;SDS011;40208;39.778;2.710;2023-06-22T10:19:25;12.18;;;4.57;;
54307;SDS011;40208;39.778;2.710;2023-06-22T10:22:10;17.00;;;5.45;;
54307;SDS011;40208;39.778;2.710;2023-06-22T10:24:54;10.90;;;4.07;;
54307;SDS011;40208;39.778;2.710;2023-06-22T10:27:39;18.60;;;4.28;;
54307;SDS011;40208;39.778;2.710;2023-06-22T10:30:25;10.23;;;3.08;;
54307;SDS011;40208;39.778;2.710;2023-06-22T10:33:10;10.70;;;3.58;;
54307;SDS011;40208;39.778;2.710;2023-06-22T10:35:56;36.72;;;4.45;;
54307;SDS011;40208;39.778;2.710;2023-06-22T10:38:40;11.27;;;3.80;;
54307;SDS011;40208;39.778;2.710;2023-06-22T10:41:25;9.55;;;3.78;;
54307;SDS011;40208;39.778;2.710;2023-06-22T10:44:10;8.95;;;3.58;;
54307;SDS011;40208;39.778;2.710;2023-06-22T10:46:55;9.27;;;3.90;;
54307;SDS011;40208;39.778;2.710;2023-06-22T10:49:39;60.47;;;5.82;;
54307;SDS011;40208;39.778;2.710;2023-06-22T10:52:25;11.55;;;4.13;;
54307;SDS011;40208;39.778;2.710;2023-06-22T10:55:10;17.08;;;4.45;;
54307;SDS011;40208;39.778;2.710;2023-06-22T10:57:55;14.25;;;4.55;;
54307;SDS011;40208;39.778;2.710;2023-06-22T11:00:40;8.32;;;3.88;;
54307;SDS011;40208;39.778;2.710;2023-06-22T11:03:24;9.52;;;3.13;;
54307;SDS011;40208;39.778;2.710;2023-06-22T11:06:09;10.02;;;4.68;;
54307;SDS011;40208;39.778;2.710;2023-06-22T11:08:54;9.52;;;3.42;;
54307;SDS011;40208;39.778;2.710;2023-06-22T11:11:39;12.20;;;4.22;;
54307;SDS011;40208;39.778;2.710;2023-06-22T11:14:24;10.75;;;3.45;;
54307;SDS011;40208;39.778;2.710;2023-06-22T11:17:09;12.10;;;2.80;;
54307;SDS011;40208;39.778;2.710;2023-06-22T11:19:54;7.00;;;2.78;;
54307;SDS011;40208;39.778;2.710;2023-06-22T11:22:39;4.30;;;2.63;;
54307;SDS011;40208;39.778;2.710;2023-06-22T11:25:25;5.53;;;2.95;;
54307;SDS011;40208;39.778;2.710;2023-06-22T11:28:10;11.85;;;3.05;;
54307;SDS011;40208;39.778;2.710;2023-06-22T11:30:55;12.63;;;3.42;;
54307;SDS011;40208;39.778;2.710;2023-06-22T11:33:39;11.15;;;3.10;;
54307;SDS011;40208;39.778;2.710;2023-06-22T11:36:24;9.68;;;3.80;;
54307;SDS011;40208;39.778;2.710;2023-06-22T11:39:10;11.40;;;4.32;;
54307;SDS011;40208;39.778;2.710;2023-06-22T11:41:55;9.30;;;3.50;;
54307;SDS011;40208;39.778;2.710;2023-06-22T11:44:41;8.23;;;3.03;;
54307;SDS011;40208;39.778;2.710;2023-06-22T11:47:27;9.10;;;3.50;;
54307;SDS011;40208;39.778;2.710;2023-06-22T11:50:12;13.30;;;3.80;;
54307;SDS011;40208;39.778;2.710;2023-06-22T11:52:56;11.85;;;3.85;;
54307;SDS011;40208;39.778;2.710;2023-06-22T11:55:41;9.18;;;3.38;;
54307;SDS011;40208;39.778;2.710;2023-06-22T11:58:26;8.73;;;3.40;;
54307;SDS011;40208;39.778;2.710;2023-06-22T12:01:11;8.27;;;3.92;;
54307;SDS011;40208;39.778;2.710;2023-06-22T12:03:59;11.95;;;3.55;;
54307;SDS011;40208;39.778;2.710;2023-06-22T12:06:43;6.13;;;2.88;;
54307;SDS011;40208;39.778;2.710;2023-06-22T12:09:28;6.60;;;3.15;;
54307;SDS011;40208;39.778;2.710;2023-06-22T12:12:13;7.57;;;3.63;;
54307;SDS011;40208;39.778;2.710;2023-06-22T12:14:58;12.07;;;3.78;;
54307;SDS011;40208;39.778;2.710;2023-06-22T12:17:47;12.90;;;3.75;;
54307;SDS011;40208;39.778;2.710;2023-06-22T12:20:32;8.48;;;3.22;;
54307;SDS011;40208;39.778;2.710;2023-06-22T12:23:17;9.80;;;3.22;;
54307;SDS011;40208;39.778;2.710;2023-06-22T12:26:04;11.85;;;3.78;;
54307;SDS011;40208;39.778;2.710;2023-06-22T12:28:49;12.52;;;3.47;;
54307;SDS011;40208;39.778;2.710;2023-06-22T12:31:33;8.00;;;3.50;;
54307;SDS011;40208;39.778;2.710;2023-06-22T12:34:19;8.27;;;3.78;;
54307;SDS011;40208;39.778;2.710;2023-06-22T12:37:04;10.15;;;3.42;;
54307;SDS011;40208;39.778;2.710;2023-06-22T12:39:50;11.95;;;4.00;;
54307;SDS011;40208;39.778;2.710;2023-06-22T12:42:35;13.13;;;3.72;;
54307;SDS011;40208;39.778;2.710;2023-06-22T12:45:19;14.43;;;3.53;;
54307;SDS011;40208;39.778;2.710;2023-06-22T12:48:05;8.98;;;3.53;;
54307;SDS011;40208;39.778;2.710;2023-06-22T12:50:51;9.90;;;3.78;;
54307;SDS011;40208;39.778;2.710;2023-06-22T12:53:35;10.98;;;4.07;;
54307;SDS011;40208;39.778;2.710;2023-06-22T12:56:20;10.27;;;3.58;;
54307;SDS011;40208;39.778;2.710;2023-06-22T12:59:05;10.85;;;3.80;;
54307;SDS011;40208;39.778;2.710;2023-06-22T13:01:50;10.25;;;3.95;;
54307;SDS011;40208;39.778;2.710;2023-06-22T13:04:35;15.25;;;3.53;;
54307;SDS011;40208;39.778;2.710;2023-06-22T13:07:21;7.20;;;3.08;;
54307;SDS011;40208;39.778;2.710;2023-06-22T13:10:05;11.57;;;4.22;;
54307;SDS011;40208;39.778;2.710;2023-06-22T13:12:50;9.52;;;3.55;;
54307;SDS011;40208;39.778;2.710;2023-06-22T13:15:36;11.05;;;3.58;;
54307;SDS011;40208;39.778;2.710;2023-06-22T13:18:21;8.52;;;3.33;;
54307;SDS011;40208;39.778;2.710;2023-06-22T13:21:06;7.70;;;3.38;;
54307;SDS011;40208;39.778;2.710;2023-06-22T13:23:51;9.82;;;3.83;;
54307;SDS011;40208;39.778;2.710;2023-06-22T13:26:36;9.38;;;3.45;;
54307;SDS011;40208;39.778;2.710;2023-06-22T13:29:21;7.78;;;3.47;;
54307;SDS011;40208;39.778;2.710;2023-06-22T13:32:06;11.55;;;3.42;;
54307;SDS011;40208;39.778;2.710;2023-06-22T13:34:52;7.07;;;3.15;;
54307;SDS011;40208;39.778;2.710;2023-06-22T13:37:39;8.52;;;3.65;;
54307;SDS011;40208;39.778;2.710;2023-06-22T13:40:23;8.13;;;3.30;;
54307;SDS011;40208;39.778;2.710;2023-06-22T13:43:08;5.60;;;3.03;;
54307;SDS011;40208;39.778;2.710;2023-06-22T13:45:53;6.45;;;2.65;;
54307;SDS011;40208;39.778;2.710;2023-06-22T13:48:38;6.38;;;3.33;;
54307;SDS011;40208;39.778;2.710;2023-06-22T13:51:23;7.38;;;2.83;;
54307;SDS011;40208;39.778;2.710;2023-06-22T13:54:08;7.88;;;2.72;;
54307;SDS011;40208;39.778;2.710;2023-06-22T13:56:53;6.80;;;2.88;;
54307;SDS011;40208;39.778;2.710;2023-06-22T13:59:38;8.10;;;3.35;;
54307;SDS011;40208;39.778;2.710;2023-06-22T14:02:23;7.70;;;2.88;;
54307;SDS011;40208;39.778;2.710;2023-06-22T14:05:10;10.40;;;3.10;;
54307;SDS011;40208;39.778;2.710;2023-06-22T14:07:55;5.15;;;2.78;;
54307;SDS011;40208;39.778;2.710;2023-06-22T14:10:40;7.68;;;2.80;;
54307;SDS011;40208;39.778;2.710;2023-06-22T14:13:25;6.85;;;2.95;;
54307;SDS011;40208;39.778;2.710;2023-06-22T14:16:10;7.00;;;3.03;;
54307;SDS011;40208;39.778;2.710;2023-06-22T14:18:55;5.88;;;2.60;;
54307;SDS011;40208;39.778;2.710;2023-06-22T14:21:40;5.90;;;2.60;;
54307;SDS011;40208;39.778;2.710;2023-06-22T14:24:25;8.32;;;3.22;;
54307;SDS011;40208;39.778;2.710;2023-06-22T14:27:09;9.65;;;3.03;;
54307;SDS011;40208;39.778;2.710;2023-06-22T14:29:54;9.77;;;3.08;;
54307;SDS011;40208;39.778;2.710;2023-06-22T14:32:39;7.65;;;2.80;;
54307;SDS011;40208;39.778;2.710;2023-06-22T14:35:24;7.25;;;3.00;;
54307;SDS011;40208;39.778;2.710;2023-06-22T14:38:09;6.93;;;2.65;;
54307;SDS011;40208;39.778;2.710;2023-06-22T14:40:54;7.13;;;2.88;;
54307;SDS011;40208;39.778;2.710;2023-06-22T14:43:42;11.60;;;2.90;;
54307;SDS011;40208;39.778;2.710;2023-06-22T14:46:28;11.57;;;3.30;;
54307;SDS011;40208;39.778;2.710;2023-06-22T14:49:13;6.90;;;2.78;;
54307;SDS011;40208;39.778;2.710;2023-06-22T14:51:57;7.60;;;3.10;;
54307;SDS011;40208;39.778;2.710;2023-06-22T14:54:42;6.18;;;2.60;;
54307;SDS011;40208;39.778;2.710;2023-06-22T14:57:27;13.82;;;2.85;;
54307;SDS011;40208;39.778;2.710;2023-06-22T15:00:13;7.10;;;2.97;;
54307;SDS011;40208;39.778;2.710;2023-06-22T15:02:58;6.50;;;2.72;;
54307;SDS011;40208;39.778;2.710;2023-06-22T15:05:45;6.93;;;2.95;;
54307;SDS011;40208;39.778;2.710;2023-06-22T15:08:30;7.78;;;2.83;;
54307;SDS011;40208;39.778;2.710;2023-06-22T15:11:15;8.93;;;3.20;;
54307;SDS011;40208;39.778;2.710;2023-06-22T15:13:59;5.20;;;2.97;;
54307;SDS011;40208;39.778;2.710;2023-06-22T15:16:44;11.30;;;3.28;;
54307;SDS011;40208;39.778;2.710;2023-06-22T15:19:29;12.18;;;3.45;;
54307;SDS011;40208;39.778;2.710;2023-06-22T15:22:14;22.70;;;5.70;;
54307;SDS011;40208;39.778;2.710;2023-06-22T15:25:00;13.32;;;4.28;;
54307;SDS011;40208;39.778;2.710;2023-06-22T15:27:47;9.32;;;3.53;;
54307;SDS011;40208;39.778;2.710;2023-06-22T15:30:32;15.23;;;5.13;;
54307;SDS011;40208;39.778;2.710;2023-06-22T15:33:17;10.85;;;3.97;;
54307;SDS011;40208;39.778;2.710;2023-06-22T15:36:02;17.05;;;4.97;;
54307;SDS011;40208;39.778;2.710;2023-06-22T15:38:48;11.25;;;4.47;;
54307;SDS011;40208;39.778;2.710;2023-06-22T15:41:33;7.53;;;2.80;;
54307;SDS011;40208;39.778;2.710;2023-06-22T15:44:18;7.18;;;2.72;;
54307;SDS011;40208;39.778;2.710;2023-06-22T15:47:03;7.05;;;3.72;;
54307;SDS011;40208;39.778;2.710;2023-06-22T15:49:48;10.13;;;3.28;;
54307;SDS011;40208;39.778;2.710;2023-06-22T15:52:34;5.50;;;2.83;;
54307;SDS011;40208;39.778;2.710;2023-06-22T15:55:19;6.80;;;3.30;;
54307;SDS011;40208;39.778;2.710;2023-06-22T15:58:03;8.60;;;3.35;;
54307;SDS011;40208;39.778;2.710;2023-06-22T16:00:48;8.27;;;3.33;;
54307;SDS011;40208;39.778;2.710;2023-06-22T16:03:34;8.48;;;3.03;;
54307;SDS011;40208;39.778;2.710;2023-06-22T16:06:19;10.82;;;3.63;;
54307;SDS011;40208;39.778;2.710;2023-06-22T16:09:04;7.40;;;3.00;;
54307;SDS011;40208;39.778;2.710;2023-06-22T16:11:49;17.27;;;3.78;;
54307;SDS011;40208;39.778;2.710;2023-06-22T16:14:35;6.22;;;2.88;;
54307;SDS011;40208;39.778;2.710;2023-06-22T16:17:22;6.72;;;3.38;;
54307;SDS011;40208;39.778;2.710;2023-06-22T16:20:07;7.95;;;3.22;;
54307;SDS011;40208;39.778;2.710;2023-06-22T16:22:54;6.25;;;2.70;;
54307;SDS011;40208;39.778;2.710;2023-06-22T16:25:39;9.27;;;3.10;;
54307;SDS011;40208;39.778;2.710;2023-06-22T16:28:24;7.57;;;3.00;;
54307;SDS011;40208;39.778;2.710;2023-06-22T16:31:09;10.48;;;3.70;;